createdAt,value
2023-03-01T00:01:58.234Z,12.00
2023-03-01T00:05:01.124Z,11.73
2023-03-01T00:08:05.301Z,10.93
2023-03-01T00:11:10.503Z,13.40
2023-03-01T00:14:13.612Z,10.90
2023-03-01T00:17:16.370Z,12.67
2023-03-01T00:20:19.364Z,11.43
2023-03-01T00:23:24.441Z,13.90
2023-03-01T00:26:28.289Z,13.03
2023-03-01T00:29:31.437Z,12.87
2023-03-01T00:32:34.293Z,17.50
2023-03-01T00:35:37.846Z,12.03
2023-03-01T00:38:43.716Z,13.83
2023-03-01T00:41:46.431Z,12.43
2023-03-01T00:44:49.193Z,13.80
2023-03-01T00:47:52.821Z,12.30
2023-03-01T00:50:55.480Z,13.33
2023-03-01T00:54:02.590Z,11.93
2023-03-01T00:57:05.363Z,10.23
2023-03-01T01:00:10.709Z,14.83
2023-03-01T01:03:13.731Z,12.27
2023-03-01T01:06:22.610Z,11.67
2023-03-01T01:09:26.954Z,12.50
2023-03-01T01:12:29.972Z,10.73
2023-03-01T01:15:36.166Z,10.40
2023-03-01T01:18:39.352Z,10.07
2023-03-01T01:21:44.207Z,12.63
2023-03-01T01:24:49.052Z,12.00
2023-03-01T01:27:51.912Z,10.77
2023-03-01T01:30:54.934Z,9.97
2023-03-01T01:33:58.617Z,13.13
2023-03-01T01:37:03.704Z,14.43
2023-03-01T01:40:09.179Z,9.67
2023-03-01T01:43:20.257Z,9.23
2023-03-01T01:46:30.670Z,13.00
2023-03-01T01:49:37.468Z,12.30
2023-03-01T01:52:40.376Z,13.50
2023-03-01T01:55:47.359Z,11.87
2023-03-01T01:58:50.573Z,9.53
2023-03-01T02:01:53.632Z,11.60
2023-03-01T02:05:04.678Z,10.13
2023-03-01T02:08:07.739Z,10.37
2023-03-01T02:11:15.661Z,12.13
2023-03-01T02:14:19.203Z,10.03
2023-03-01T02:17:23.668Z,12.53
2023-03-01T02:20:35.433Z,12.80
2023-03-01T02:23:38.531Z,12.83
2023-03-01T02:26:47.246Z,10.83
2023-03-01T02:29:51.448Z,13.90
2023-03-01T02:33:03.879Z,14.40
2023-03-01T02:36:10.206Z,15.17
2023-03-01T02:39:18.563Z,13.67
2023-03-01T02:42:28.038Z,13.70
2023-03-01T02:45:32.753Z,12.47
2023-03-01T02:48:43.619Z,16.87
2023-03-01T02:51:56.895Z,11.80
2023-03-01T02:55:02.862Z,11.00
2023-03-01T02:58:06.504Z,11.77
2023-03-01T03:01:10.973Z,13.93
2023-03-01T03:04:18.854Z,11.73
2023-03-01T03:07:21.843Z,13.20
2023-03-01T03:10:28.807Z,13.60
2023-03-01T03:13:31.943Z,13.20
2023-03-01T03:16:36.237Z,12.87
2023-03-01T03:19:39.049Z,11.60
2023-03-01T03:22:42.095Z,12.47
2023-03-01T03:25:44.773Z,16.33
2023-03-01T03:28:47.720Z,11.03
2023-03-01T03:31:51.905Z,13.90
2023-03-01T03:34:54.679Z,12.73
2023-03-01T03:38:04.200Z,10.27
2023-03-01T03:41:09.172Z,11.20
2023-03-01T03:44:12.107Z,14.27
2023-03-01T03:47:16.578Z,14.30
2023-03-01T03:50:20.277Z,11.17
2023-03-01T03:53:24.658Z,13.10
2023-03-01T03:56:28.910Z,12.93
2023-03-01T03:59:31.804Z,13.07
2023-03-01T04:02:35.875Z,13.50
2023-03-01T04:05:39.296Z,12.30
2023-03-01T04:08:42.916Z,14.33
2023-03-01T04:11:45.778Z,11.43
2023-03-01T04:14:49.040Z,11.33
2023-03-01T04:17:54.397Z,11.97
2023-03-01T04:20:57.173Z,13.20
2023-03-01T04:23:59.845Z,14.33
2023-03-01T04:27:03.208Z,18.67
2023-03-01T04:30:06.716Z,12.10
2023-03-01T04:33:12.952Z,13.40
2023-03-01T04:36:18.613Z,15.47
2023-03-01T04:39:21.496Z,13.37
2023-03-01T04:42:24.233Z,14.87
2023-03-01T04:45:27.253Z,11.53
2023-03-01T04:48:31.903Z,15.30
2023-03-01T04:51:34.719Z,11.93
2023-03-01T04:54:38.084Z,14.43
2023-03-01T04:57:41.584Z,14.37
2023-03-01T05:00:44.488Z,15.27
2023-03-01T05:03:50.180Z,15.27
2023-03-01T05:06:54.510Z,14.43
2023-03-01T05:09:57.313Z,13.90
2023-03-01T05:13:00.709Z,15.43
2023-03-01T05:16:05.525Z,15.03
2023-03-01T05:19:16.368Z,16.53
2023-03-01T05:22:20.254Z,16.13
2023-03-01T05:25:23.638Z,15.43
2023-03-01T05:28:26.607Z,15.00
2023-03-01T05:31:31.661Z,15.27
2023-03-01T05:34:38.006Z,15.13
2023-03-01T05:37:42.564Z,16.30
2023-03-01T05:40:47.613Z,14.27
2023-03-01T05:43:50.473Z,15.67
2023-03-01T05:46:53.628Z,16.60
2023-03-01T05:49:57.729Z,16.40
2023-03-01T05:53:02.172Z,15.77
2023-03-01T05:56:05.628Z,14.10
2023-03-01T05:59:08.832Z,16.90
2023-03-01T06:02:11.513Z,16.97
2023-03-01T06:05:17.034Z,16.50
2023-03-01T06:08:21.281Z,15.57
2023-03-01T06:11:24.661Z,17.00
2023-03-01T06:14:27.457Z,15.53
2023-03-01T06:17:32.388Z,15.80
2023-03-01T06:20:36.525Z,14.53
2023-03-01T06:23:39.198Z,13.60
2023-03-01T06:26:41.970Z,14.60
2023-03-01T06:29:44.666Z,14.07
2023-03-01T06:32:47.552Z,15.77
2023-03-01T06:35:52.319Z,15.17
2023-03-01T06:38:55.151Z,14.87
2023-03-01T06:41:57.935Z,15.07
2023-03-01T06:45:00.686Z,15.57
2023-03-01T06:48:05.521Z,17.10
2023-03-01T06:51:09.724Z,14.87
2023-03-01T06:54:12.666Z,15.73
2023-03-01T06:57:15.652Z,15.70
2023-03-01T07:00:19.353Z,13.93
2023-03-01T07:03:22.155Z,16.37
2023-03-01T07:06:26.340Z,14.77
2023-03-01T07:09:29.394Z,13.40
2023-03-01T07:12:32.113Z,14.00
2023-03-01T07:15:34.939Z,17.40
2023-03-01T07:18:37.708Z,13.87
2023-03-01T07:21:41.751Z,14.10
2023-03-01T07:24:45.401Z,13.40
2023-03-01T07:27:52.148Z,14.87
2023-03-01T07:30:55.359Z,16.40
2023-03-01T07:33:58.298Z,16.80
2023-03-01T07:37:02.357Z,20.13
2023-03-01T07:40:06.176Z,17.53
2023-03-01T07:43:09.029Z,19.07
2023-03-01T07:46:12.275Z,17.93
2023-03-01T07:49:15.423Z,17.37
2023-03-01T07:52:19.591Z,18.33
2023-03-01T07:55:22.445Z,14.83
2023-03-01T07:58:25.288Z,17.13
2023-03-01T08:01:28.148Z,18.37
2023-03-01T08:04:30.944Z,18.10
2023-03-01T08:07:35.502Z,19.80
2023-03-01T08:10:38.714Z,17.87
2023-03-01T08:13:42.276Z,19.30
2023-03-01T08:16:45.163Z,15.13
2023-03-01T08:19:47.960Z,23.57
2023-03-01T08:22:52.062Z,17.13
2023-03-01T08:25:54.922Z,18.07
2023-03-01T08:28:58.790Z,19.50
2023-03-01T08:32:02.128Z,18.37
2023-03-01T08:35:05.506Z,18.63
2023-03-01T08:38:09.748Z,19.13
2023-03-01T08:41:12.505Z,19.77
2023-03-01T08:44:17.667Z,17.27
2023-03-01T08:47:20.515Z,16.97
2023-03-01T08:50:25.336Z,16.30
2023-03-01T08:53:29.366Z,18.77
2023-03-01T08:56:32.784Z,15.97
2023-03-01T08:59:38.374Z,17.40
2023-03-01T09:02:41.221Z,17.63
2023-03-01T09:05:43.936Z,17.27
2023-03-01T09:08:49.857Z,20.07
2023-03-01T09:11:52.670Z,20.43
2023-03-01T09:14:55.340Z,18.07
2023-03-01T09:17:58.125Z,16.93
2023-03-01T09:21:08.040Z,19.43
2023-03-01T09:24:16.381Z,19.50
2023-03-01T09:27:19.955Z,18.33
2023-03-01T09:30:23.554Z,19.47
2023-03-01T09:33:26.318Z,18.93
2023-03-01T09:36:30.037Z,19.33
2023-03-01T09:39:34.420Z,16.90
2023-03-01T09:42:38.693Z,17.77
2023-03-01T09:45:46.022Z,19.80
2023-03-01T09:48:54.476Z,19.50
2023-03-01T09:52:01.147Z,21.10
2023-03-01T09:55:12.652Z,15.33
2023-03-01T09:58:38.012Z,17.27
2023-03-01T10:01:49.712Z,18.47
2023-03-01T10:04:54.743Z,17.33
2023-03-01T10:08:06.966Z,19.77
2023-03-01T10:11:24.930Z,17.17
2023-03-01T10:14:36.285Z,17.17
2023-03-01T10:17:44.875Z,18.03
2023-03-01T10:20:55.192Z,15.50
2023-03-01T10:24:05.924Z,16.47
2023-03-01T10:27:17.983Z,17.83
2023-03-01T10:30:24.434Z,17.27
2023-03-01T10:33:31.347Z,18.60
2023-03-01T10:36:35.889Z,18.30
2023-03-01T10:39:57.288Z,18.27
2023-03-01T10:43:04.670Z,16.83
2023-03-01T10:46:25.156Z,18.67
2023-03-01T10:49:27.939Z,16.23
2023-03-01T10:52:35.068Z,14.60
2023-03-01T10:55:40.055Z,17.43
2023-03-01T10:59:00.195Z,16.97
2023-03-01T11:02:24.396Z,20.83
2023-03-01T11:05:29.403Z,15.23
2023-03-01T11:08:35.248Z,14.33
2023-03-01T11:11:38.802Z,14.53
2023-03-01T11:14:49.577Z,14.53
2023-03-01T11:17:57.068Z,13.33
2023-03-01T11:21:05.649Z,14.77
2023-03-01T11:24:13.906Z,15.33
2023-03-01T11:27:21.815Z,15.27
2023-03-01T11:30:30.998Z,14.53
2023-03-01T11:33:39.132Z,13.80
2023-03-01T11:36:47.139Z,13.37
2023-03-01T11:39:58.209Z,14.83
2023-03-01T11:43:11.883Z,12.80
2023-03-01T11:46:45.424Z,14.03
2023-03-01T11:50:11.015Z,13.23
2023-03-01T11:53:32.507Z,14.83
2023-03-01T11:56:40.454Z,14.20
2023-03-01T12:00:17.662Z,12.50
2023-03-01T12:03:34.486Z,15.73
2023-03-01T12:06:53.056Z,13.23
2023-03-01T12:10:12.787Z,13.50
2023-03-01T12:13:39.634Z,14.33
2023-03-01T12:17:09.944Z,13.80
2023-03-01T12:20:34.433Z,14.47
2023-03-01T12:24:00.715Z,14.17
2023-03-01T12:27:22.721Z,18.90
2023-03-01T12:30:37.398Z,13.50
2023-03-01T12:33:50.940Z,13.17
2023-03-01T12:37:13.002Z,12.67
2023-03-01T12:40:35.520Z,14.90
2023-03-01T12:43:52.756Z,13.33
2023-03-01T12:47:21.420Z,12.97
2023-03-01T12:50:26.666Z,14.70
2023-03-01T12:53:33.331Z,14.57
2023-03-01T12:56:39.168Z,15.23
2023-03-01T12:59:50.187Z,14.10
2023-03-01T13:03:00.280Z,14.23
2023-03-01T13:06:13.076Z,15.80
2023-03-01T13:09:27.033Z,13.47
2023-03-01T13:12:53.760Z,15.30
2023-03-01T13:15:57.242Z,13.17
2023-03-01T13:19:10.472Z,11.83
2023-03-01T13:22:29.587Z,14.40
2023-03-01T13:25:42.046Z,17.30
2023-03-01T13:28:54.523Z,13.60
2023-03-01T13:31:59.438Z,15.60
2023-03-01T13:35:04.435Z,13.57
2023-03-01T13:38:46.873Z,13.10
2023-03-01T13:41:56.137Z,14.10
2023-03-01T13:44:59.185Z,16.43
2023-03-01T13:48:05.899Z,13.10
2023-03-01T13:51:12.008Z,15.23
2023-03-01T13:54:17.473Z,13.73
2023-03-01T13:57:26.940Z,15.43
2023-03-01T14:00:33.515Z,13.93
2023-03-01T14:03:43.850Z,13.37
2023-03-01T14:06:47.056Z,14.00
2023-03-01T14:09:54.686Z,12.23
2023-03-01T14:13:16.172Z,16.77
2023-03-01T14:16:27.446Z,14.73
2023-03-01T14:19:34.104Z,13.93
2023-03-01T14:22:38.535Z,15.20
2023-03-01T14:25:49.488Z,15.77
2023-03-01T14:28:53.683Z,17.33
2023-03-01T14:31:56.516Z,15.53
2023-03-01T14:35:00.760Z,13.87
2023-03-01T14:38:04.021Z,18.50
2023-03-01T14:41:09.765Z,18.23
2023-03-01T14:44:20.643Z,15.33
2023-03-01T14:47:29.294Z,16.27
2023-03-01T14:50:34.017Z,18.57
2023-03-01T14:53:49.268Z,16.80
2023-03-01T14:56:54.965Z,17.03
2023-03-01T15:00:05.245Z,18.37
2023-03-01T15:03:14.224Z,17.53
2023-03-01T15:06:20.370Z,16.60
2023-03-01T15:09:24.286Z,16.23
2023-03-01T15:12:39.599Z,16.00
2023-03-01T15:15:47.285Z,17.23
2023-03-01T15:18:52.813Z,16.67
2023-03-01T15:21:55.805Z,17.33
2023-03-01T15:24:59.183Z,16.17
2023-03-01T15:28:03.989Z,18.63
2023-03-01T15:31:21.493Z,14.23
2023-03-01T15:34:26.815Z,15.27
2023-03-01T15:37:41.642Z,15.70
2023-03-01T15:40:52.025Z,15.73
2023-03-01T15:43:56.523Z,16.93
2023-03-01T15:47:01.343Z,16.37
2023-03-01T15:50:04.438Z,19.43
2023-03-01T15:53:12.050Z,15.53
2023-03-01T15:56:15.228Z,19.80
2023-03-01T15:59:18.116Z,16.03
2023-03-01T16:02:23.018Z,15.53
2023-03-01T16:05:27.832Z,18.17
2023-03-01T16:08:30.573Z,17.03
2023-03-01T16:11:33.557Z,14.83
2023-03-01T16:14:36.488Z,12.13
2023-03-01T16:17:40.755Z,15.07
2023-03-01T16:20:44.023Z,14.90
2023-03-01T16:23:47.107Z,13.83
2023-03-01T16:26:49.765Z,13.40
2023-03-01T16:29:52.419Z,15.70
2023-03-01T16:32:56.468Z,15.27
2023-03-01T16:36:01.131Z,15.57
2023-03-01T16:39:04.360Z,16.80
2023-03-01T16:42:07.304Z,14.40
2023-03-01T16:45:22.795Z,19.73
2023-03-01T16:48:28.322Z,18.47
2023-03-01T16:51:31.967Z,17.50
2023-03-01T16:54:34.904Z,15.43
2023-03-01T16:57:38.726Z,14.90
2023-03-01T17:00:41.611Z,12.70
2023-03-01T17:03:48.284Z,14.00
2023-03-01T17:06:51.619Z,15.33
2023-03-01T17:09:54.297Z,14.40
2023-03-01T17:12:57.134Z,14.43
2023-03-01T17:15:59.821Z,14.90
2023-03-01T17:19:04.269Z,14.20
2023-03-01T17:22:06.967Z,12.87
2023-03-01T17:25:10.615Z,16.27
2023-03-01T17:28:14.699Z,16.77
2023-03-01T17:31:17.431Z,14.47
2023-03-01T17:34:21.547Z,15.20
2023-03-01T17:37:24.770Z,14.57
2023-03-01T17:40:28.447Z,17.17
2023-03-01T17:43:31.421Z,15.73
2023-03-01T17:46:34.087Z,15.87
2023-03-01T17:49:38.674Z,15.67
2023-03-01T17:52:42.555Z,15.00
2023-03-01T17:55:46.158Z,17.17
2023-03-01T17:58:48.881Z,15.73
2023-03-01T18:01:52.312Z,13.23
2023-03-01T18:04:58.823Z,14.77
2023-03-01T18:08:01.637Z,15.43
2023-03-01T18:11:04.439Z,17.27
2023-03-01T18:14:07.114Z,18.70
2023-03-01T18:17:11.881Z,17.47
2023-03-01T18:20:17.944Z,15.80
2023-03-01T18:23:20.625Z,19.73
2023-03-01T18:26:25.103Z,14.83
2023-03-01T18:29:28.285Z,15.63
2023-03-01T18:32:31.029Z,13.83
2023-03-01T18:35:38.843Z,16.07
2023-03-01T18:38:41.768Z,15.00
2023-03-01T18:41:44.609Z,19.97
2023-03-01T18:44:47.495Z,17.97
2023-03-01T18:47:50.764Z,16.53
2023-03-01T18:50:54.860Z,17.10
2023-03-01T18:53:59.524Z,14.17
2023-03-01T18:57:02.332Z,15.27
2023-03-01T19:00:09.138Z,17.20
2023-03-01T19:03:12.271Z,16.03
2023-03-01T19:06:17.338Z,16.83
2023-03-01T19:09:20.146Z,16.67
2023-03-01T19:12:22.854Z,17.97
2023-03-01T19:15:25.627Z,14.93
2023-03-01T19:18:28.519Z,16.67
2023-03-01T19:21:33.775Z,14.97
2023-03-01T19:24:36.786Z,17.17
2023-03-01T19:27:39.740Z,16.03
2023-03-01T19:30:42.487Z,18.30
2023-03-01T19:33:45.385Z,20.37
2023-03-01T19:36:49.827Z,18.30
2023-03-01T19:39:52.469Z,17.43
2023-03-01T19:42:55.183Z,20.00
2023-03-01T19:45:58.295Z,17.50
2023-03-01T19:49:03.065Z,15.70
2023-03-01T19:52:07.242Z,14.63
2023-03-01T19:55:11.015Z,16.20
2023-03-01T19:58:13.728Z,14.83
2023-03-01T20:01:17.857Z,15.37
2023-03-01T20:04:20.934Z,21.57
2023-03-01T20:07:25.241Z,18.30
2023-03-01T20:10:30.315Z,14.93
2023-03-01T20:13:33.261Z,16.63
2023-03-01T20:16:36.150Z,16.07
2023-03-01T20:19:39.105Z,21.57
2023-03-01T20:22:43.347Z,16.43
2023-03-01T20:25:46.266Z,17.63
2023-03-01T20:28:50.949Z,19.07
2023-03-01T20:31:54.094Z,16.87
2023-03-01T20:34:56.904Z,21.17
2023-03-01T20:38:01.005Z,17.97
2023-03-01T20:41:06.033Z,16.80
2023-03-01T20:44:09.457Z,17.77
2023-03-01T20:47:12.751Z,18.43
2023-03-01T20:50:16.212Z,20.83
2023-03-01T20:53:20.182Z,22.30
2023-03-01T20:56:24.215Z,21.00
2023-03-01T20:59:27.240Z,18.23
2023-03-01T21:02:29.949Z,16.57
2023-03-01T21:05:32.727Z,17.87
2023-03-01T21:08:38.173Z,15.10
2023-03-01T21:11:41.082Z,16.30
2023-03-01T21:14:43.854Z,16.33
2023-03-01T21:17:46.576Z,13.37
2023-03-01T21:20:49.723Z,15.73
2023-03-01T21:23:54.877Z,16.50
2023-03-01T21:26:57.667Z,18.47
2023-03-01T21:30:00.355Z,17.07
2023-03-01T21:33:03.255Z,19.10
2023-03-01T21:36:08.286Z,22.27
2023-03-01T21:39:12.882Z,19.17
2023-03-01T21:42:15.564Z,14.67
2023-03-01T21:45:18.391Z,21.07
2023-03-01T21:48:21.375Z,21.33
2023-03-01T21:51:26.866Z,16.93
2023-03-01T21:54:32.347Z,19.07
2023-03-01T21:57:43.732Z,21.20
2023-03-01T22:00:47.077Z,18.33
2023-03-01T22:03:49.976Z,20.00
2023-03-01T22:06:54.448Z,17.50
2023-03-01T22:10:01.759Z,16.77
2023-03-01T22:13:05.429Z,18.57
2023-03-01T22:16:08.981Z,16.53
2023-03-01T22:19:13.145Z,16.63
2023-03-01T22:22:15.926Z,15.47
2023-03-01T22:25:20.326Z,19.17
2023-03-01T22:28:23.068Z,13.73
2023-03-01T22:31:26.292Z,16.23
2023-03-01T22:34:29.248Z,14.93
2023-03-01T22:37:31.999Z,15.60
2023-03-01T22:40:36.074Z,16.97
2023-03-01T22:43:38.819Z,17.90
2023-03-01T22:46:42.019Z,17.30
2023-03-01T22:49:45.223Z,19.20
2023-03-01T22:52:47.956Z,16.70
2023-03-01T22:55:52.096Z,21.23
2023-03-01T22:58:54.828Z,16.53
2023-03-01T23:01:57.575Z,17.57
2023-03-01T23:05:00.345Z,16.67
2023-03-01T23:08:03.095Z,14.10
2023-03-01T23:11:11.628Z,14.73
2023-03-01T23:14:16.199Z,18.57
2023-03-01T23:17:18.900Z,16.17
2023-03-01T23:20:21.596Z,18.90
2023-03-01T23:23:24.339Z,15.90
2023-03-01T23:26:30.430Z,16.77
2023-03-01T23:29:34.026Z,18.70
2023-03-01T23:32:40.541Z,15.90
2023-03-01T23:35:43.401Z,18.83
2023-03-01T23:38:46.463Z,24.30
2023-03-01T23:41:50.703Z,19.87
2023-03-01T23:44:53.469Z,21.40
2023-03-01T23:47:56.607Z,26.27
2023-03-01T23:51:05.300Z,21.87
2023-03-01T23:54:08.303Z,22.10
2023-03-01T23:57:12.671Z,18.07
